Terminal Aerodrome Forecast
Issued by NWS

Home | Current Version | Previous Version | Text Only | Print | Product List | Glossary Off
Versions: 1 2 3 4 5 6 7 8 9 10 11 12 13 14 15

000
FTUS43 KTOP 282300
TAFMHK
TAF
KMHK 282328Z 2900/2924 28009KT P6SM SCT250
     FM290300 32012KT P6SM FEW250
     FM290900 34014G21KT P6SM BKN020
     FM291900 35012KT P6SM SCT025=

USA.gov is the U.S. government's official web portal to all federal, state and local government web resources and services.